Camden, AL

11:36 PM CST on December 22, 2014 (GMT -0600)
Middleton | Change Station
CLOSE
Current Station
Airport
Location: Evergreen,
Elevation: 256 ft
Nearby Weather Stations

Elev 256 ft 31.42 °N, 87.04 °W | Updated 28 minutes ago

Overcast
Overcast
64 °F
Feels Like 64 °F
N
5
Wind Variable Wind from SE

Today
High -- | Low -- °F
--% Chance of Precip.
Yesterday
High -- | Low -- °F
Precip. -- in
6:46 AM 4:49 PM
New Moon, 2% visible
Pressure 29.80 in
Visibility 7.0 miles
Clouds Overcast 300 ft
Dew Point 62 °F
Humidity 93%
Rainfall 0.07 in
Snow Depth Not available.
UV 0 out of 12
Pollen 1.80 out of 12
Air Quality Not available.
Flu Activity Not available.
SPECI KGZH 230508Z AUTO 13004KT 7SM OVC003 18/17 A2980 RMK AO2 T01780167

More Conditions Fewer Conditions

Pressure 29.80 in
Visibility 7.0 miles
Clouds Overcast 300 ft
Dew Point 62 °F
Humidity 93%
Rainfall 0.07 in
Snow Depth Not available.
UV 0 out of 12
Pollen 1.80 out of 12
Air Quality Not available.
Flu Activity Not available.
SPECI KGZH 230508Z AUTO 13004KT 7SM OVC003 18/17 A2980 RMK AO2 T01780167

More Conditions Fewer Conditions

10-Day Weather Forecast

Almanac

Astronomy

Dec. 22, 2014 Rise Set
Actual Time
Civil Twilight
Nautical Twilight
Astronomical Twilight
Moon
Length of Visible Light
Length of Day
Tomorrow will be .
, % of the Moon is Illuminated

Today's Extremes

State Highs State Lows

Community

WunderPhotos

Upload Photos

1,779,786 photos uploaded!

WunderBlogs® & News

Nearby

Air Quality

  Air Quality AQ Index Pollutant
Not available.

Snow Depth

Station Depth Elevation

Earthquake Activity

City Distance Mag. Time & Date
Minimum magnitude displayed is 2.5.

Coastal Water Temperatures

Place Temperature

Nearby Weather Stations